Time;durP1;ratioP1;P1;durP2;ratioP2;P2;SDS_P1;SDS_P2;PMS_P1;PMS_P2;Temp;Humidity;BMP_temperature;BMP_pressure;BME280_temperature;BME280_humidity;BME280_pressure;Samples;Min_cycle;Max_cycle;Signal;HPM_P1;HPM_P2
2022/06/22 00:01:39;0.00;0.00;0.62;0.00;0.00;0.62;2.73;1.80;;;27.80;24.80;;;;;;2252734;61;20398;-58
2022/06/22 00:04:29;0.00;0.00;0.62;0.00;0.00;0.62;2.93;1.80;;;27.80;24.90;;;;;;2253214;61;20342;-54
2022/06/22 00:07:21;0.00;0.00;0.62;0.00;0.00;0.62;2.23;1.80;;;27.80;24.90;;;;;;2253314;61;20397;-55
2022/06/22 00:10:14;0.00;0.00;0.62;0.00;0.00;0.62;3.27;2.17;;;27.80;24.90;;;;;;2252361;61;20390;-55
2022/06/22 00:13:01;0.00;0.00;0.62;0.00;0.00;0.62;1.93;1.73;;;27.80;25.00;;;;;;2252967;61;20406;-58
2022/06/22 00:15:50;0.00;0.00;0.62;0.00;0.00;0.62;2.90;2.00;;;27.80;25.00;;;;;;2251705;61;20370;-56
2022/06/22 00:18:40;0.00;0.00;0.62;0.00;0.00;0.62;2.80;2.10;;;27.80;25.00;;;;;;2252070;61;20522;-57
2022/06/22 00:21:32;0.00;0.00;0.62;0.00;0.00;0.62;2.60;1.73;;;27.80;25.00;;;;;;2252004;61;20887;-58
2022/06/22 00:24:41;0.00;0.00;0.62;0.00;0.00;0.62;3.00;1.77;;;27.80;25.00;;;;;;2251676;61;20891;-58
2022/06/22 00:27:36;0.00;0.00;0.62;0.00;0.00;0.62;3.83;2.23;;;27.70;25.00;;;;;;2251966;61;20398;-57
2022/06/22 00:30:31;0.00;0.00;0.62;0.00;0.00;0.62;2.70;2.23;;;27.70;25.10;;;;;;2251389;61;20494;-58
2022/06/22 00:33:22;0.00;0.00;0.62;0.00;0.00;0.62;2.63;2.00;;;27.70;25.20;;;;;;2251607;61;20390;-56
2022/06/22 00:36:18;0.00;0.00;0.62;0.00;0.00;0.62;2.30;1.90;;;27.70;25.10;;;;;;2252496;61;20383;-57
2022/06/22 00:39:25;0.00;0.00;0.62;0.00;0.00;0.62;4.27;2.60;;;27.70;25.20;;;;;;2251939;61;20875;-56
2022/06/22 00:42:30;0.00;0.00;0.62;0.00;0.00;0.62;2.20;2.00;;;27.70;25.30;;;;;;2252430;61;20447;-56
2022/06/22 00:45:25;0.00;0.00;0.62;0.00;0.00;0.62;2.50;2.30;;;27.70;25.20;;;;;;2251380;61;20347;-55
2022/06/22 00:48:22;0.00;0.00;0.62;0.00;0.00;0.62;3.30;2.50;;;27.70;25.20;;;;;;2252081;61;20807;-54
2022/06/22 00:51:14;0.00;0.00;0.62;0.00;0.00;0.62;3.93;2.40;;;27.70;25.20;;;;;;2251349;61;20476;-54
2022/06/22 00:54:04;0.00;0.00;0.62;0.00;0.00;0.62;7.33;2.40;;;27.70;25.20;;;;;;2251639;61;20747;-55
2022/06/22 00:56:57;0.00;0.00;0.62;0.00;0.00;0.62;3.07;2.17;;;27.70;25.80;;;;;;2252170;61;20383;-55
2022/06/22 00:59:51;0.00;0.00;0.62;0.00;0.00;0.62;3.17;2.30;;;27.60;25.20;;;;;;2251310;61;20433;-58
2022/06/22 01:02:45;0.00;0.00;0.62;0.00;0.00;0.62;4.50;2.40;;;27.60;25.20;;;;;;2251690;61;20366;-58
2022/06/22 01:05:40;0.00;0.00;0.62;0.00;0.00;0.62;2.70;2.27;;;27.60;25.20;;;;;;2251929;61;20429;-54
2022/06/22 01:08:35;0.00;0.00;0.62;0.00;0.00;0.62;4.00;2.73;;;27.60;25.20;;;;;;2251615;61;20471;-57
2022/06/22 01:14:42;0.00;0.00;0.62;0.00;0.00;0.62;2.87;2.57;;;27.50;25.20;;;;;;2250948;61;20474;-54
2022/06/22 01:17:34;0.00;0.00;0.62;0.00;0.00;0.62;3.00;2.30;;;27.50;25.20;;;;;;2251803;61;20386;-53
2022/06/22 01:20:33;0.00;0.00;0.62;0.00;0.00;0.62;4.43;2.10;;;27.40;25.10;;;;;;2252085;61;20501;-57
2022/06/22 01:24:11;0.00;0.00;0.62;0.00;0.00;0.62;3.23;2.43;;;27.40;25.10;;;;;;2251623;61;20485;-56
2022/06/22 01:27:31;0.00;0.00;0.62;0.00;0.00;0.62;3.70;2.10;;;27.40;25.50;;;;;;2251919;61;20387;-58
2022/06/22 01:30:27;0.00;0.00;0.62;0.00;0.00;0.62;4.60;2.40;;;27.30;25.20;;;;;;2251327;61;20387;-55
2022/06/22 01:33:17;0.00;0.00;0.62;0.00;0.00;0.62;2.60;1.83;;;27.30;25.20;;;;;;2251411;61;20410;-53
2022/06/22 01:36:22;0.00;0.00;0.62;0.00;0.00;0.62;2.53;2.17;;;27.30;25.20;;;;;;2251742;61;20363;-57
2022/06/22 01:39:11;0.00;0.00;0.62;0.00;0.00;0.62;2.10;1.77;;;27.20;25.20;;;;;;2251631;61;20402;-54
2022/06/22 01:42:02;0.00;0.00;0.62;0.00;0.00;0.62;2.73;2.10;;;27.20;25.30;;;;;;2252015;61;20367;-57
2022/06/22 01:44:55;0.00;0.00;0.62;0.00;0.00;0.62;2.60;1.80;;;27.20;25.30;;;;;;2251233;61;20999;-58
2022/06/22 01:47:45;0.00;0.00;0.62;0.00;0.00;0.62;2.10;1.60;;;27.20;25.30;;;;;;2251621;61;20469;-55
2022/06/22 01:50:37;0.00;0.00;0.62;0.00;0.00;0.62;3.30;2.03;;;27.20;25.40;;;;;;2251712;61;20891;-55
2022/06/22 01:53:30;0.00;0.00;0.62;0.00;0.00;0.62;2.37;1.57;;;27.20;25.30;;;;;;2251525;61;20502;-56
2022/06/22 01:56:25;0.00;0.00;0.62;0.00;0.00;0.62;3.37;1.90;;;27.30;25.40;;;;;;2251789;61;20366;-58
2022/06/22 01:59:21;0.00;0.00;0.62;0.00;0.00;0.62;3.37;2.20;;;27.30;25.40;;;;;;2251108;61;20441;-56
2022/06/22 02:02:12;0.00;0.00;0.62;0.00;0.00;0.62;2.10;1.90;;;27.30;25.40;;;;;;2250974;61;20358;-58
2022/06/22 02:05:11;0.00;0.00;0.62;0.00;0.00;0.62;2.10;1.60;;;27.30;25.40;;;;;;2251465;61;20359;-58
2022/06/22 02:08:04;0.00;0.00;0.62;0.00;0.00;0.62;3.20;2.00;;;27.30;25.40;;;;;;2251519;61;20382;-55
2022/06/22 02:10:59;0.00;0.00;0.62;0.00;0.00;0.62;2.63;2.23;;;27.30;25.50;;;;;;2251718;61;20395;-55
2022/06/22 02:13:52;0.00;0.00;0.62;0.00;0.00;0.62;2.60;1.90;;;27.40;25.50;;;;;;2250683;61;20359;-56
2022/06/22 02:16:44;0.00;0.00;0.62;0.00;0.00;0.62;3.00;1.60;;;27.30;25.50;;;;;;2251551;61;20889;-55
2022/06/22 02:19:31;0.00;0.00;0.62;0.00;0.00;0.62;3.67;2.00;;;27.30;25.40;;;;;;2251930;61;20824;-54
2022/06/22 02:22:15;0.00;0.00;0.62;0.00;0.00;0.62;3.27;1.60;;;27.30;25.40;;;;;;2251322;61;20363;-56
2022/06/22 02:25:00;0.00;0.00;0.62;0.00;0.00;0.62;2.20;1.60;;;27.30;25.40;;;;;;2251328;61;20423;-55
2022/06/22 02:27:45;0.00;0.00;0.62;0.00;0.00;0.62;2.57;2.23;;;27.40;25.50;;;;;;2251512;61;20473;-56
2022/06/22 02:30:30;0.00;0.00;0.62;0.00;0.00;0.62;3.30;1.97;;;27.40;25.50;;;;;;2251388;61;20467;-54
2022/06/22 02:33:16;0.00;0.00;0.62;0.00;0.00;0.62;3.90;2.10;;;27.40;25.50;;;;;;2251732;61;20774;-56
2022/06/22 02:36:03;0.00;0.00;0.62;0.00;0.00;0.62;2.80;1.90;;;27.40;25.50;;;;;;2251018;61;20363;-52
2022/06/22 02:38:52;0.00;0.00;0.62;0.00;0.00;0.62;2.00;1.60;;;27.40;25.60;;;;;;2251667;61;20374;-51
2022/06/22 02:44:43;0.00;0.00;0.62;0.00;0.00;0.62;2.90;2.07;;;27.40;25.60;;;;;;2251386;61;20406;-52
2022/06/22 02:47:42;0.00;0.00;0.62;0.00;0.00;0.62;2.63;1.97;;;27.40;25.60;;;;;;2251475;61;20429;-54
2022/06/22 02:50:35;0.00;0.00;0.62;0.00;0.00;0.62;2.10;1.50;;;27.30;25.50;;;;;;2251377;61;20391;-51
2022/06/22 02:53:28;0.00;0.00;0.62;0.00;0.00;0.62;3.33;2.10;;;27.30;25.50;;;;;;2251543;61;20371;-53
2022/06/22 02:56:21;0.00;0.00;0.62;0.00;0.00;0.62;3.80;2.40;;;27.30;25.40;;;;;;2251867;61;20411;-52
2022/06/22 02:59:07;0.00;0.00;0.62;0.00;0.00;0.62;2.60;1.77;;;27.30;25.40;;;;;;2251052;61;20362;-51
2022/06/22 03:01:52;0.00;0.00;0.62;0.00;0.00;0.62;2.67;1.87;;;27.20;25.30;;;;;;2251401;61;20405;-50
2022/06/22 03:04:40;0.00;0.00;0.62;0.00;0.00;0.62;3.77;2.57;;;27.20;25.40;;;;;;2484654;53;20390;-55
2022/06/22 03:07:25;0.00;0.00;0.62;0.00;0.00;0.62;1.87;1.67;;;27.20;25.40;;;;;;2250706;61;20386;-54
2022/06/22 03:10:23;0.00;0.00;0.62;0.00;0.00;0.62;3.40;1.93;;;27.10;25.40;;;;;;2251118;61;20891;-53
2022/06/22 03:13:10;0.00;0.00;0.62;0.00;0.00;0.62;2.60;2.10;;;27.10;25.40;;;;;;2250405;61;20402;-53
2022/06/22 03:15:56;0.00;0.00;0.62;0.00;0.00;0.62;2.17;1.83;;;27.00;25.40;;;;;;2251650;61;20359;-54
2022/06/22 03:18:43;0.00;0.00;0.62;0.00;0.00;0.62;2.47;2.17;;;27.10;25.50;;;;;;2251552;61;20367;-51
2022/06/22 03:21:28;0.00;0.00;0.62;0.00;0.00;0.62;4.10;2.70;;;27.00;25.40;;;;;;2250925;61;20406;-56
2022/06/22 03:24:24;0.00;0.00;0.62;0.00;0.00;0.62;3.83;2.40;;;27.00;25.40;;;;;;2251587;61;20786;-55
2022/06/22 03:27:20;0.00;0.00;0.62;0.00;0.00;0.62;2.83;1.97;;;27.00;25.40;;;;;;2251807;61;20385;-52
2022/06/22 03:30:13;0.00;0.00;0.62;0.00;0.00;0.62;3.50;2.10;;;26.90;25.40;;;;;;2252013;61;20405;-54
2022/06/22 03:33:03;0.00;0.00;0.62;0.00;0.00;0.62;2.90;2.23;;;26.90;25.50;;;;;;2252178;61;20410;-53
2022/06/22 03:35:55;0.00;0.00;0.62;0.00;0.00;0.62;2.60;2.10;;;26.80;25.50;;;;;;2251445;61;20502;-52
2022/06/22 03:38:47;0.00;0.00;0.62;0.00;0.00;0.62;2.77;2.57;;;26.80;25.60;;;;;;2252122;61;20754;-51
2022/06/22 03:41:39;0.00;0.00;0.62;0.00;0.00;0.62;3.20;2.43;;;26.70;25.60;;;;;;2251673;61;20370;-51
2022/06/22 03:44:31;0.00;0.00;0.62;0.00;0.00;0.62;2.30;2.00;;;26.60;25.60;;;;;;2251366;61;20366;-57
2022/06/22 03:47:21;0.00;0.00;0.62;0.00;0.00;0.62;2.33;2.13;;;26.60;25.60;;;;;;2252059;61;20387;-53
2022/06/22 03:50:14;0.00;0.00;0.62;0.00;0.00;0.62;3.53;2.40;;;26.60;25.80;;;;;;2251260;61;20413;-56
2022/06/22 03:53:06;0.00;0.00;0.62;0.00;0.00;0.62;2.63;2.43;;;26.50;26.30;;;;;;2251718;61;20531;-56
2022/06/22 03:55:57;0.00;0.00;0.62;0.00;0.00;0.62;2.73;2.20;;;26.50;25.80;;;;;;2251622;61;20362;-51
2022/06/22 03:58:47;0.00;0.00;0.62;0.00;0.00;0.62;2.10;1.90;;;26.50;25.90;;;;;;2251743;61;20449;-52
2022/06/22 04:01:35;0.00;0.00;0.62;0.00;0.00;0.62;3.30;2.53;;;26.40;25.90;;;;;;2252059;61;20426;-49
2022/06/22 04:04:23;0.00;0.00;0.62;0.00;0.00;0.62;4.03;2.70;;;26.40;25.90;;;;;;2251574;61;20393;-58
2022/06/22 04:07:13;0.00;0.00;0.62;0.00;0.00;0.62;5.97;2.43;;;26.40;26.00;;;;;;2252264;61;20394;-55
2022/06/22 04:09:58;0.00;0.00;0.62;0.00;0.00;0.62;4.53;2.80;;;26.30;25.90;;;;;;2252232;61;20907;-53
2022/06/22 04:12:48;0.00;0.00;0.62;0.00;0.00;0.62;2.73;2.10;;;26.30;25.90;;;;;;2251515;61;20859;-55
2022/06/22 04:15:39;0.00;0.00;0.62;0.00;0.00;0.62;3.43;2.13;;;26.30;26.00;;;;;;2252025;61;20506;-54
2022/06/22 04:18:30;0.00;0.00;0.62;0.00;0.00;0.62;3.13;2.20;;;26.20;26.00;;;;;;2251807;61;20433;-53
2022/06/22 04:21:26;0.00;0.00;0.62;0.00;0.00;0.62;4.30;2.50;;;26.20;26.10;;;;;;2251635;61;20426;-53
2022/06/22 04:24:14;0.00;0.00;0.62;0.00;0.00;0.62;5.60;2.50;;;26.20;26.10;;;;;;2251787;61;20834;-56
2022/06/22 04:27:07;0.00;0.00;0.62;0.00;0.00;0.62;3.00;2.60;;;26.20;26.20;;;;;;2251218;61;20997;-57
2022/06/22 04:29:59;0.00;0.00;0.62;0.00;0.00;0.62;4.07;2.53;;;26.10;26.20;;;;;;2251868;61;20927;-54
2022/06/22 04:32:53;0.00;0.00;0.62;0.00;0.00;0.62;2.97;2.30;;;26.10;26.20;;;;;;2251753;61;20439;-55
2022/06/22 04:35:49;0.00;0.00;0.62;0.00;0.00;0.62;2.97;2.67;;;26.10;26.30;;;;;;2250765;61;20422;-57
2022/06/22 04:38:39;0.00;0.00;0.62;0.00;0.00;0.62;3.00;2.20;;;26.10;26.30;;;;;;2251993;61;20386;-58
2022/06/22 04:41:29;0.00;0.00;0.62;0.00;0.00;0.62;2.27;1.80;;;26.10;26.30;;;;;;2251454;61;20359;-53
2022/06/22 04:44:17;0.00;0.00;0.62;0.00;0.00;0.62;1.83;1.60;;;26.20;26.30;;;;;;2251843;61;20479;-58
2022/06/22 04:47:15;0.00;0.00;0.62;0.00;0.00;0.62;3.20;2.23;;;26.20;26.30;;;;;;2251391;61;20422;-57
2022/06/22 04:50:04;0.00;0.00;0.62;0.00;0.00;0.62;2.10;1.80;;;26.20;26.30;;;;;;2251149;61;21066;-56
2022/06/22 04:52:52;0.00;0.00;0.62;0.00;0.00;0.62;2.60;1.70;;;26.20;26.30;;;;;;2252034;61;20407;-55
2022/06/22 04:55:41;0.00;0.00;0.62;0.00;0.00;0.62;2.13;1.63;;;26.20;26.20;;;;;;2251649;61;20467;-52
2022/06/22 04:58:36;0.00;0.00;0.62;0.00;0.00;0.62;2.63;1.90;;;26.30;26.30;;;;;;2251429;61;20382;-57
2022/06/22 05:01:25;0.00;0.00;0.62;0.00;0.00;0.62;2.87;1.90;;;26.30;26.30;;;;;;2251871;61;20354;-57
2022/06/22 05:04:16;0.00;0.00;0.62;0.00;0.00;0.62;2.07;1.60;;;26.30;26.30;;;;;;2250844;61;20362;-53
2022/06/22 05:07:07;0.00;0.00;0.62;0.00;0.00;0.62;2.10;1.80;;;26.30;26.30;;;;;;2251485;61;21156;-57
2022/06/22 05:09:59;0.00;0.00;0.62;0.00;0.00;0.62;2.70;1.90;;;26.30;26.20;;;;;;2251611;61;20359;-56
2022/06/22 05:12:49;0.00;0.00;0.62;0.00;0.00;0.62;2.33;2.13;;;26.40;26.30;;;;;;2251471;61;20406;-52
2022/06/22 05:15:38;0.00;0.00;0.62;0.00;0.00;0.62;2.63;1.90;;;26.40;26.30;;;;;;2252075;61;20872;-54
2022/06/22 05:18:29;0.00;0.00;0.62;0.00;0.00;0.62;2.70;1.87;;;26.40;26.80;;;;;;2251536;61;20470;-53
2022/06/22 05:21:19;0.00;0.00;0.62;0.00;0.00;0.62;4.13;1.90;;;26.40;26.30;;;;;;2251997;61;20390;-52
2022/06/22 05:24:10;0.00;0.00;0.62;0.00;0.00;0.62;2.47;2.17;;;26.50;26.30;;;;;;2251850;61;20418;-54
2022/06/22 05:26:59;0.00;0.00;0.62;0.00;0.00;0.62;2.03;1.80;;;26.50;26.30;;;;;;2251098;61;20383;-57
2022/06/22 05:29:48;0.00;0.00;0.62;0.00;0.00;0.62;3.27;2.70;;;26.50;26.30;;;;;;2252956;61;20417;-57
2022/06/22 05:32:39;0.00;0.00;0.62;0.00;0.00;0.62;4.07;2.33;;;26.50;26.30;;;;;;2251639;61;20402;-58
2022/06/22 05:35:29;0.00;0.00;0.62;0.00;0.00;0.62;2.60;2.20;;;26.50;26.30;;;;;;2251356;61;20375;-55
2022/06/22 05:38:16;0.00;0.00;0.62;0.00;0.00;0.62;2.20;2.00;;;26.50;26.30;;;;;;2251860;61;21222;-53
2022/06/22 05:41:04;0.00;0.00;0.62;0.00;0.00;0.62;3.63;2.63;;;26.50;26.30;;;;;;2250816;61;20382;-55
2022/06/22 05:43:51;0.00;0.00;0.62;0.00;0.00;0.62;4.33;2.60;;;26.50;26.30;;;;;;2251383;61;20363;-55
2022/06/22 05:46:37;0.00;0.00;0.62;0.00;0.00;0.62;4.57;2.50;;;26.50;26.30;;;;;;2251732;61;20386;-55
2022/06/22 05:49:29;0.00;0.00;0.62;0.00;0.00;0.62;4.33;2.90;;;26.50;26.30;;;;;;2250961;61;20371;-53
2022/06/22 05:52:21;0.00;0.00;0.62;0.00;0.00;0.62;3.60;2.33;;;26.50;26.30;;;;;;2251686;61;20390;-55
2022/06/22 05:55:14;0.00;0.00;0.62;0.00;0.00;0.62;2.93;2.07;;;26.50;26.30;;;;;;2251570;61;20398;-59
2022/06/22 05:58:06;0.00;0.00;0.62;0.00;0.00;0.62;3.13;2.23;;;26.50;26.30;;;;;;2251436;61;20526;-58
2022/06/22 06:00:55;0.00;0.00;0.62;0.00;0.00;0.62;3.20;2.17;;;26.50;26.40;;;;;;2252307;61;20347;-58
2022/06/22 06:03:48;0.00;0.00;0.62;0.00;0.00;0.62;3.33;2.60;;;26.50;26.40;;;;;;2251532;61;20390;-53
2022/06/22 06:06:39;0.00;0.00;0.62;0.00;0.00;0.62;2.83;2.00;;;26.60;26.50;;;;;;2252110;61;20382;-57
2022/06/22 06:09:26;0.00;0.00;0.62;0.00;0.00;0.62;4.40;2.20;;;26.60;26.50;;;;;;2251829;61;20382;-59
2022/06/22 06:12:18;0.00;0.00;0.62;0.00;0.00;0.62;4.30;2.20;;;26.60;26.50;;;;;;2251972;61;20958;-59
2022/06/22 06:15:05;0.00;0.00;0.62;0.00;0.00;0.62;3.60;2.97;;;26.60;26.50;;;;;;2252368;61;20362;-55
2022/06/22 06:17:57;0.00;0.00;0.62;0.00;0.00;0.62;4.30;2.93;;;26.70;26.70;;;;;;2251589;61;20429;-57
2022/06/22 06:20:45;0.00;0.00;0.62;0.00;0.00;0.62;3.67;2.73;;;26.70;26.70;;;;;;2253108;61;20433;-51
2022/06/22 06:23:34;0.00;0.00;0.62;0.00;0.00;0.62;3.63;2.67;;;26.70;26.70;;;;;;2248912;61;20383;-59
2022/06/22 06:29:53;0.00;0.00;0.62;0.00;0.00;0.62;2.70;2.20;;;26.80;26.80;;;;;;2251814;61;20410;-53
2022/06/22 06:32:46;0.00;0.00;0.62;0.00;0.00;0.62;2.97;2.67;;;26.80;26.80;;;;;;2249866;61;20371;-53
2022/06/22 06:35:36;0.00;0.00;0.62;0.00;0.00;0.62;4.40;2.30;;;26.80;26.80;;;;;;2246624;61;20394;-55
2022/06/22 06:38:27;0.00;0.00;0.62;0.00;0.00;0.62;4.23;2.43;;;26.80;26.80;;;;;;2250442;61;20540;-54
2022/06/22 06:41:17;0.00;0.00;0.62;0.00;0.00;0.62;2.57;2.20;;;26.80;26.70;;;;;;2249750;61;20414;-58
2022/06/22 06:44:09;0.00;0.00;0.62;0.00;0.00;0.62;4.00;2.80;;;26.80;26.70;;;;;;2251114;61;20366;-57
2022/06/22 06:47:00;0.00;0.00;0.62;0.00;0.00;0.62;3.30;2.10;;;26.80;26.80;;;;;;2250522;61;20390;-52
2022/06/22 06:49:50;0.00;0.00;0.62;0.00;0.00;0.62;3.80;2.30;;;26.90;26.80;;;;;;2248939;61;21212;-55
2022/06/22 06:52:46;0.00;0.00;0.62;0.00;0.00;0.62;2.47;2.00;;;26.90;26.80;;;;;;2249829;61;20457;-52
2022/06/22 06:55:40;0.00;0.00;0.62;0.00;0.00;0.62;2.43;2.10;;;26.90;26.80;;;;;;2251251;61;20425;-50
2022/06/22 06:58:36;0.00;0.00;0.62;0.00;0.00;0.62;3.83;2.17;;;27.00;26.90;;;;;;2251054;61;20430;-51
2022/06/22 07:01:24;0.00;0.00;0.62;0.00;0.00;0.62;2.70;2.40;;;27.00;26.90;;;;;;2250703;61;20355;-55
2022/06/22 07:04:15;0.00;0.00;0.62;0.00;0.00;0.62;2.43;2.10;;;27.00;26.90;;;;;;2250511;61;20366;-56
2022/06/22 07:07:07;0.00;0.00;0.62;0.00;0.00;0.62;1.93;1.73;;;27.00;26.80;;;;;;2253696;61;20399;-56
2022/06/22 07:09:59;0.00;0.00;0.62;0.00;0.00;0.62;3.43;2.10;;;27.00;26.80;;;;;;2250718;61;20797;-54
2022/06/22 07:12:49;0.00;0.00;0.62;0.00;0.00;0.62;4.10;2.10;;;27.00;26.80;;;;;;2251419;61;20502;-56
2022/06/22 07:15:39;0.00;0.00;0.62;0.00;0.00;0.62;2.57;1.90;;;27.00;26.70;;;;;;2251249;61;20382;-52
2022/06/22 07:18:31;0.00;0.00;0.62;0.00;0.00;0.62;1.73;1.53;;;27.10;26.60;;;;;;2250927;61;20492;-52
2022/06/22 07:21:22;0.00;0.00;0.62;0.00;0.00;0.62;3.07;1.83;;;27.10;26.60;;;;;;2251078;61;20363;-54
2022/06/22 07:24:13;0.00;0.00;0.62;0.00;0.00;0.62;3.80;2.20;;;27.10;26.50;;;;;;2252920;61;20509;-54
2022/06/22 07:27:05;0.00;0.00;0.62;0.00;0.00;0.62;3.57;2.20;;;27.10;26.40;;;;;;2251317;61;20503;-58
2022/06/22 07:29:59;0.00;0.00;0.62;0.00;0.00;0.62;1.90;1.60;;;27.10;26.30;;;;;;2251215;61;20779;-57
2022/06/22 07:32:52;0.00;0.00;0.62;0.00;0.00;0.62;1.90;1.43;;;27.10;26.20;;;;;;2250568;61;20802;-52
2022/06/22 07:35:46;0.00;0.00;0.62;0.00;0.00;0.62;4.20;1.77;;;27.10;26.20;;;;;;2251643;61;20367;-52
2022/06/22 07:38:43;0.00;0.00;0.62;0.00;0.00;0.62;3.20;1.63;;;27.10;26.20;;;;;;2251006;61;20422;-58
2022/06/22 07:41:31;0.00;0.00;0.62;0.00;0.00;0.62;3.10;2.10;;;27.10;26.10;;;;;;2250989;61;20482;-52
2022/06/22 07:44:22;0.00;0.00;0.62;0.00;0.00;0.62;2.47;2.17;;;27.10;26.20;;;;;;2250980;61;20346;-57
2022/06/22 07:47:13;0.00;0.00;0.62;0.00;0.00;0.62;2.73;1.80;;;27.10;26.20;;;;;;2247351;61;20455;-55
2022/06/22 07:50:04;0.00;0.00;0.62;0.00;0.00;0.62;3.63;2.03;;;27.10;26.40;;;;;;2251094;61;20362;-57
2022/06/22 07:52:56;0.00;0.00;0.62;0.00;0.00;0.62;2.63;1.60;;;27.20;26.20;;;;;;2248446;61;20454;-50
2022/06/22 07:55:51;0.00;0.00;0.62;0.00;0.00;0.62;3.83;1.77;;;27.20;26.20;;;;;;2250812;61;20363;-57
2022/06/22 07:58:42;0.00;0.00;0.62;0.00;0.00;0.62;4.30;1.70;;;27.20;26.20;;;;;;2252962;61;20402;-56
2022/06/22 08:01:33;0.00;0.00;0.62;0.00;0.00;0.62;2.00;1.70;;;27.20;26.20;;;;;;2250464;61;20494;-52
2022/06/22 08:04:24;0.00;0.00;0.62;0.00;0.00;0.62;3.10;1.80;;;27.20;26.10;;;;;;2250959;61;20417;-54
2022/06/22 08:07:12;0.00;0.00;0.62;0.00;0.00;0.62;2.67;1.90;;;27.20;26.10;;;;;;2250612;61;20841;-53
2022/06/22 08:10:08;0.00;0.00;0.62;0.00;0.00;0.62;2.03;1.57;;;27.20;26.00;;;;;;2250929;61;20502;-55
2022/06/22 08:13:02;0.00;0.00;0.62;0.00;0.00;0.62;3.20;1.80;;;27.20;26.00;;;;;;2251879;61;20818;-52
2022/06/22 08:15:54;0.00;0.00;0.62;0.00;0.00;0.62;3.10;1.70;;;27.20;25.90;;;;;;2251640;61;20386;-58
2022/06/22 08:18:42;0.00;0.00;0.62;0.00;0.00;0.62;2.97;2.10;;;27.20;26.00;;;;;;2251756;61;20865;-56
2022/06/22 08:21:28;0.00;0.00;0.62;0.00;0.00;0.62;3.50;1.60;;;27.20;25.90;;;;;;2251622;61;20841;-53
2022/06/22 08:24:15;0.00;0.00;0.62;0.00;0.00;0.62;2.50;1.73;;;27.20;25.90;;;;;;2251212;61;20402;-56
2022/06/22 08:27:01;0.00;0.00;0.62;0.00;0.00;0.62;3.27;1.83;;;27.30;26.00;;;;;;2251914;61;20386;-55
2022/06/22 08:29:48;0.00;0.00;0.62;0.00;0.00;0.62;1.83;1.63;;;27.30;25.90;;;;;;2251781;61;20860;-53
2022/06/22 08:32:37;0.00;0.00;0.62;0.00;0.00;0.62;3.40;1.80;;;27.30;25.90;;;;;;2251360;61;20448;-53
2022/06/22 08:35:30;0.00;0.00;0.62;0.00;0.00;0.62;2.43;1.80;;;27.30;25.90;;;;;;2251421;61;20471;-52
2022/06/22 08:38:21;0.00;0.00;0.62;0.00;0.00;0.62;1.83;1.60;;;27.30;25.80;;;;;;2251401;61;20795;-57
2022/06/22 08:41:20;0.00;0.00;0.62;0.00;0.00;0.62;3.00;1.93;;;27.30;25.90;;;;;;2251891;61;20363;-51
2022/06/22 08:44:20;0.00;0.00;0.62;0.00;0.00;0.62;4.70;2.07;;;27.30;25.80;;;;;;2248475;61;20428;-55
2022/06/22 08:47:43;0.00;0.00;0.62;0.00;0.00;0.62;1.80;1.47;;;27.30;25.80;;;;;;2251159;61;20417;-52
2022/06/22 08:51:11;0.00;0.00;0.62;0.00;0.00;0.62;3.03;1.60;;;27.40;25.70;;;;;;2248530;61;21185;-56
2022/06/22 08:54:41;0.00;0.00;0.62;0.00;0.00;0.62;2.00;1.60;;;27.40;25.60;;;;;;2250371;61;20406;-57
2022/06/22 08:57:40;0.00;0.00;0.62;0.00;0.00;0.62;2.03;1.70;;;27.40;25.60;;;;;;2253292;61;20924;-51
2022/06/22 09:00:37;0.00;0.00;0.62;0.00;0.00;0.62;2.17;1.63;;;27.40;25.60;;;;;;2477486;53;20367;-54
2022/06/22 09:04:13;0.00;0.00;0.62;0.00;0.00;0.62;2.43;1.70;;;27.40;26.10;;;;;;2247462;61;20454;-62
2022/06/22 09:07:24;0.00;0.00;0.62;0.00;0.00;0.62;2.43;1.83;;;27.40;25.60;;;;;;2247262;61;21309;-54
2022/06/22 09:10:49;0.00;0.00;0.62;0.00;0.00;0.62;2.00;1.60;;;27.40;25.60;;;;;;2247402;61;20784;-52
2022/06/22 09:14:28;0.00;0.00;0.62;0.00;0.00;0.62;2.50;1.60;;;27.40;25.60;;;;;;2244193;61;20364;-54
2022/06/22 09:17:37;0.00;0.00;0.62;0.00;0.00;0.62;4.27;1.70;;;27.50;25.50;;;;;;2247254;61;20399;-53
2022/06/22 09:20:39;0.00;0.00;0.62;0.00;0.00;0.62;3.17;2.23;;;27.40;25.40;;;;;;2247771;61;20375;-54
2022/06/22 09:23:33;0.00;0.00;0.62;0.00;0.00;0.62;2.67;1.87;;;27.50;25.40;;;;;;2246475;61;20494;-53
2022/06/22 09:26:34;0.00;0.00;0.62;0.00;0.00;0.62;2.70;1.60;;;27.40;25.40;;;;;;2247646;61;20364;-55
2022/06/22 09:29:40;0.00;0.00;0.62;0.00;0.00;0.62;3.23;2.10;;;27.50;25.30;;;;;;2247325;61;20367;-53
2022/06/22 09:33:08;0.00;0.00;0.62;0.00;0.00;0.62;2.50;1.60;;;27.50;25.30;;;;;;2247276;61;20379;-54
2022/06/22 09:36:22;0.00;0.00;0.62;0.00;0.00;0.62;3.73;1.50;;;27.50;25.10;;;;;;2247684;61;20374;-58
2022/06/22 09:39:45;0.00;0.00;0.62;0.00;0.00;0.62;2.30;1.57;;;27.50;25.00;;;;;;2247527;61;20921;-60
2022/06/22 09:43:08;0.00;0.00;0.62;0.00;0.00;0.62;4.07;1.70;;;27.50;25.00;;;;;;2247478;61;20363;-52
2022/06/22 09:46:10;0.00;0.00;0.62;0.00;0.00;0.62;3.37;2.00;;;27.50;25.00;;;;;;2246603;61;20368;-53
2022/06/22 09:49:35;0.00;0.00;0.62;0.00;0.00;0.62;2.70;1.63;;;27.50;24.90;;;;;;2247549;61;20374;-57
2022/06/22 09:52:55;0.00;0.00;0.62;0.00;0.00;0.62;3.20;1.80;;;27.50;24.90;;;;;;2247529;61;20519;-56
2022/06/22 09:56:19;0.00;0.00;0.62;0.00;0.00;0.62;2.10;1.40;;;27.50;24.70;;;;;;2247565;61;20436;-52
2022/06/22 09:59:44;0.00;0.00;0.62;0.00;0.00;0.62;3.60;1.90;;;27.50;24.50;;;;;;2337399;53;20456;-53
2022/06/22 10:03:10;0.00;0.00;0.62;0.00;0.00;0.62;2.13;1.43;;;27.50;24.40;;;;;;2247340;61;20371;-58
2022/06/22 10:06:30;0.00;0.00;0.62;0.00;0.00;0.62;3.20;1.40;;;27.50;24.40;;;;;;2246910;61;20548;-62
2022/06/22 10:09:54;0.00;0.00;0.62;0.00;0.00;0.62;3.10;1.70;;;27.60;24.40;;;;;;2247450;61;20395;-58
2022/06/22 10:13:18;0.00;0.00;0.62;0.00;0.00;0.62;2.57;1.70;;;27.60;24.50;;;;;;2246508;61;20468;-56
2022/06/22 10:16:39;0.00;0.00;0.62;0.00;0.00;0.62;2.80;1.40;;;27.60;24.40;;;;;;2247307;61;20452;-52
2022/06/22 10:19:50;0.00;0.00;0.62;0.00;0.00;0.62;1.70;1.30;;;27.60;24.40;;;;;;2248110;61;20379;-55
2022/06/22 10:22:54;0.00;0.00;0.62;0.00;0.00;0.62;2.87;1.73;;;27.60;24.50;;;;;;2246916;61;20427;-54
2022/06/22 10:26:12;0.00;0.00;0.62;0.00;0.00;0.62;3.50;1.80;;;27.70;24.40;;;;;;2248070;61;20395;-55
2022/06/22 10:29:35;0.00;0.00;0.62;0.00;0.00;0.62;2.27;1.40;;;27.70;24.20;;;;;;2249873;61;20387;-55
2022/06/22 10:33:02;0.00;0.00;0.62;0.00;0.00;0.62;4.07;1.67;;;27.70;24.00;;;;;;2247477;61;20395;-57
2022/06/22 10:36:14;0.00;0.00;0.62;0.00;0.00;0.62;2.30;1.80;;;27.70;24.00;;;;;;2247527;61;20400;-56
2022/06/22 10:39:23;0.00;0.00;0.62;0.00;0.00;0.62;4.10;1.80;;;27.70;24.00;;;;;;2246413;61;20426;-57
2022/06/22 10:45:46;0.00;0.00;0.62;0.00;0.00;0.62;2.70;1.63;;;27.80;24.00;;;;;;2248004;61;21246;-52
2022/06/22 10:49:15;0.00;0.00;0.62;0.00;0.00;0.62;2.90;1.47;;;27.80;23.70;;;;;;2247910;61;20387;-56
2022/06/22 10:52:21;0.00;0.00;0.62;0.00;0.00;0.62;2.07;1.50;;;27.80;23.70;;;;;;2250525;61;20389;-57
2022/06/22 10:55:43;0.00;0.00;0.62;0.00;0.00;0.62;3.50;1.60;;;27.80;23.70;;;;;;2251105;61;20374;-55
2022/06/22 10:59:24;0.00;0.00;0.62;0.00;0.00;0.62;4.33;1.40;;;27.80;23.70;;;;;;2253316;61;20390;-58
2022/06/22 11:02:52;0.00;0.00;0.62;0.00;0.00;0.62;2.60;1.53;;;27.80;23.90;;;;;;2251305;61;20363;-55
2022/06/22 11:06:31;0.00;0.00;0.62;0.00;0.00;0.62;3.20;1.47;;;27.90;23.30;;;;;;2401586;53;20383;-60
2022/06/22 11:09:35;0.00;0.00;0.62;0.00;0.00;0.62;1.90;1.30;;;27.90;23.40;;;;;;2247299;61;20411;-56
2022/06/22 11:12:42;0.00;0.00;0.62;0.00;0.00;0.62;1.73;1.20;;;27.90;23.60;;;;;;2244240;61;20947;-60
2022/06/22 11:16:12;0.00;0.00;0.62;0.00;0.00;0.62;2.00;1.50;;;27.90;23.70;;;;;;2246738;61;20363;-60
2022/06/22 11:19:52;0.00;0.00;0.62;0.00;0.00;0.62;1.63;1.27;;;27.90;23.40;;;;;;2247700;61;20375;-58
2022/06/22 11:22:41;0.00;0.00;0.62;0.00;0.00;0.62;6.00;1.43;;;27.90;23.40;;;;;;2247164;61;20402;-59
2022/06/22 11:32:52;0.00;0.00;0.62;0.00;0.00;0.62;2.77;1.80;;;28.00;23.70;;;;;;2247460;61;20414;-53
2022/06/22 11:35:53;0.00;0.00;0.62;0.00;0.00;0.62;2.13;1.57;;;28.00;23.20;;;;;;2246838;61;20876;-56
2022/06/22 11:39:11;0.00;0.00;0.62;0.00;0.00;0.62;1.90;1.43;;;28.10;23.40;;;;;;2246890;61;20423;-58
2022/06/22 11:42:17;0.00;0.00;0.62;0.00;0.00;0.62;2.37;1.73;;;28.10;23.20;;;;;;2247315;61;20768;-54
2022/06/22 11:49:35;0.00;0.00;0.62;0.00;0.00;0.62;2.60;1.53;;;28.10;22.90;;;;;;2248521;61;20399;-55
2022/06/22 11:52:52;0.00;0.00;0.62;0.00;0.00;0.62;2.90;1.37;;;28.10;23.00;;;;;;2247590;61;20399;-55
2022/06/22 11:55:43;0.00;0.00;0.62;0.00;0.00;0.62;3.03;1.70;;;28.20;22.90;;;;;;2248171;61;20471;-54
2022/06/22 11:59:19;0.00;0.00;0.62;0.00;0.00;0.62;2.53;1.80;;;28.20;22.60;;;;;;2244076;61;20388;-56
2022/06/22 12:02:45;0.00;0.00;0.62;0.00;0.00;0.62;2.40;1.40;;;28.20;22.60;;;;;;2248184;61;20949;-57
2022/06/22 12:06:07;0.00;0.00;0.62;0.00;0.00;0.62;3.60;1.40;;;28.20;22.60;;;;;;2246928;61;20419;-56